createdAt,value
2023-02-04T00:00:37.960Z,15.50
2023-02-04T00:04:50.169Z,12.07
2023-02-04T00:09:03.315Z,17.75
2023-02-04T00:13:15.695Z,12.13
2023-02-04T00:17:28.187Z,13.43
2023-02-04T00:21:41.820Z,10.40
2023-02-04T00:25:54.184Z,11.73
2023-02-04T00:30:08.177Z,7.63
2023-02-04T00:34:20.632Z,8.57
2023-02-04T00:38:32.982Z,10.43
2023-02-04T00:42:46.629Z,10.48
2023-02-04T00:46:59.166Z,8.55
2023-02-04T00:51:12.172Z,6.78
2023-02-04T00:55:24.834Z,8.15
2023-02-04T00:59:37.193Z,6.60
2023-02-04T01:03:51.048Z,7.28
2023-02-04T01:08:03.512Z,6.93
2023-02-04T01:12:16.448Z,8.30
2023-02-04T01:16:29.646Z,6.85
2023-02-04T01:20:41.972Z,7.28
2023-02-04T01:24:55.463Z,4.63
2023-02-04T01:29:26.689Z,7.03
2023-02-04T01:33:39.046Z,5.78
2023-02-04T01:37:51.506Z,5.65
2023-02-04T01:42:07.458Z,6.13
2023-02-04T01:46:24.331Z,5.28
2023-02-04T01:50:36.788Z,4.88
2023-02-04T01:54:49.559Z,6.30
2023-02-04T01:59:02.247Z,5.55
2023-02-04T02:03:14.591Z,4.85
2023-02-04T02:07:27.036Z,4.57
2023-02-04T02:11:39.865Z,4.75
2023-02-04T02:15:52.214Z,4.47
2023-02-04T02:20:08.819Z,4.50
2023-02-04T02:24:33.960Z,3.80
2023-02-04T02:28:48.089Z,5.20
2023-02-04T02:33:01.007Z,8.50
2023-02-04T02:37:14.290Z,4.70
2023-02-04T02:41:27.641Z,7.88
2023-02-04T02:45:40.089Z,5.68
2023-02-04T02:49:53.899Z,6.50
2023-02-04T02:54:06.143Z,5.32
2023-02-04T02:58:28.978Z,3.70
2023-02-04T03:02:42.353Z,4.45
2023-02-04T03:06:57.655Z,4.22
2023-02-04T03:11:10.333Z,2.92
2023-02-04T03:15:25.457Z,8.07
2023-02-04T03:19:39.154Z,6.38
2023-02-04T03:23:51.889Z,2.90
2023-02-04T03:28:05.645Z,2.95
2023-02-04T03:32:18.180Z,2.67
2023-02-04T03:36:30.785Z,3.53
2023-02-04T03:40:43.994Z,2.97
2023-02-04T03:45:01.519Z,2.83
2023-02-04T03:49:14.005Z,2.53
2023-02-04T03:53:26.432Z,2.60
2023-02-04T03:57:38.987Z,4.65
2023-02-04T04:01:52.846Z,4.40
2023-02-04T04:06:06.657Z,4.13
2023-02-04T04:10:18.991Z,1.83
2023-02-04T04:14:31.429Z,2.45
2023-02-04T04:18:43.738Z,3.72
2023-02-04T04:22:56.032Z,3.42
2023-02-04T04:27:11.405Z,2.53
2023-02-04T04:31:23.798Z,3.22
2023-02-04T04:35:36.247Z,5.93
2023-02-04T04:39:48.552Z,2.15
2023-02-04T04:44:02.114Z,1.80
2023-02-04T04:48:15.099Z,1.67
2023-02-04T04:52:28.815Z,4.07
2023-02-04T04:56:41.198Z,1.77
2023-02-04T05:00:53.623Z,2.88
2023-02-04T05:05:06.457Z,2.92
2023-02-04T05:09:18.776Z,6.40
2023-02-04T05:13:31.217Z,4.90
2023-02-04T05:17:43.560Z,3.75
2023-02-04T05:21:55.992Z,3.03
2023-02-04T05:26:08.467Z,2.90
2023-02-04T05:30:20.740Z,2.63
2023-02-04T05:34:33.906Z,2.95
2023-02-04T05:38:46.362Z,8.70
2023-02-04T05:42:58.727Z,4.55
2023-02-04T05:47:11.098Z,10.55
2023-02-04T05:51:25.685Z,7.93
2023-02-04T05:55:37.962Z,4.40
2023-02-04T05:59:51.452Z,4.13
2023-02-04T06:04:03.848Z,3.58
2023-02-04T06:08:17.615Z,5.32
2023-02-04T06:12:30.329Z,3.63
2023-02-04T06:16:42.735Z,4.40
2023-02-04T06:20:58.353Z,5.30
2023-02-04T06:25:10.818Z,5.00
2023-02-04T06:29:25.425Z,3.28
2023-02-04T06:33:41.918Z,5.00
2023-02-04T06:37:54.941Z,6.40
2023-02-04T06:42:07.958Z,9.38
2023-02-04T06:46:21.006Z,4.63
2023-02-04T06:50:33.661Z,7.70
2023-02-04T06:54:46.076Z,8.13
2023-02-04T06:58:58.427Z,6.85
2023-02-04T07:03:11.081Z,5.38
2023-02-04T07:07:23.364Z,9.27
2023-02-04T07:11:35.712Z,9.50
2023-02-04T07:15:53.145Z,10.15
2023-02-04T07:20:05.871Z,9.57
2023-02-04T07:24:18.171Z,8.63
2023-02-04T07:28:34.666Z,5.63
2023-02-04T07:32:46.965Z,10.68
2023-02-04T07:36:59.234Z,7.25
2023-02-04T07:41:11.643Z,10.48
2023-02-04T07:45:29.316Z,8.48
2023-02-04T07:49:41.748Z,5.65
2023-02-04T07:53:55.105Z,7.93
2023-02-04T07:58:07.651Z,14.50
2023-02-04T08:02:20.288Z,9.40
2023-02-04T08:06:35.045Z,7.65
2023-02-04T08:10:47.496Z,7.55
2023-02-04T08:15:00.269Z,8.93
2023-02-04T08:19:19.225Z,7.72
2023-02-04T08:23:33.465Z,9.23
2023-02-04T08:27:46.988Z,10.23
2023-02-04T08:31:59.874Z,17.23
2023-02-04T08:36:12.252Z,27.85
2023-02-04T08:40:24.864Z,16.80
2023-02-04T08:44:37.219Z,14.57
2023-02-04T08:48:49.536Z,17.10
2023-02-04T08:53:02.697Z,11.07
2023-02-04T08:57:15.516Z,13.20
2023-02-04T09:01:27.940Z,25.50
2023-02-04T09:05:40.393Z,21.17
2023-02-04T09:09:54.236Z,13.93
2023-02-04T09:14:08.066Z,13.98
2023-02-04T09:18:22.328Z,11.68
2023-02-04T09:22:36.912Z,14.18
2023-02-04T09:26:49.421Z,10.15
2023-02-04T09:31:04.530Z,10.98
2023-02-04T09:35:18.409Z,9.40
2023-02-04T09:39:31.627Z,11.38
2023-02-04T09:43:45.894Z,12.07
2023-02-04T09:48:00.229Z,14.15
2023-02-04T09:52:16.784Z,15.73
2023-02-04T09:56:31.500Z,12.20
2023-02-04T10:00:47.179Z,14.30
2023-02-04T10:05:03.882Z,11.68
2023-02-04T10:09:17.674Z,13.18
2023-02-04T10:13:43.042Z,13.63
2023-02-04T10:18:02.005Z,15.82
2023-02-04T10:22:20.356Z,14.15
2023-02-04T10:26:47.046Z,16.88
2023-02-04T10:31:00.759Z,13.40
2023-02-04T10:35:16.705Z,10.52
2023-02-04T10:39:30.765Z,11.13
2023-02-04T10:43:43.175Z,14.65
2023-02-04T10:47:56.747Z,8.73
2023-02-04T10:52:16.781Z,12.18
2023-02-04T11:00:42.071Z,8.18
2023-02-04T11:04:54.823Z,10.18
2023-02-04T11:09:08.128Z,8.98
2023-02-04T11:13:24.911Z,14.40
2023-02-04T11:17:37.309Z,14.68
2023-02-04T11:21:49.675Z,21.98
2023-02-04T11:26:35.484Z,17.00
2023-02-04T11:31:00.766Z,14.77
2023-02-04T11:35:13.193Z,15.10
2023-02-04T11:39:48.256Z,13.73
2023-02-04T11:44:03.785Z,14.52
2023-02-04T11:48:19.630Z,19.67
2023-02-04T11:52:36.235Z,12.43
2023-02-04T11:56:54.415Z,17.98
2023-02-04T12:01:25.398Z,12.90
2023-02-04T12:05:43.415Z,15.32
2023-02-04T12:10:01.680Z,13.38
2023-02-04T12:14:18.740Z,14.40
2023-02-04T12:18:31.896Z,17.42
2023-02-04T12:22:44.656Z,15.52
2023-02-04T12:26:58.313Z,15.93
2023-02-04T12:31:10.706Z,15.63
2023-02-04T12:35:24.375Z,14.52
2023-02-04T12:39:37.738Z,18.83
2023-02-04T12:43:50.875Z,22.38
2023-02-04T12:48:03.199Z,14.00
2023-02-04T12:52:16.322Z,9.55
2023-02-04T12:56:31.452Z,10.20
2023-02-04T13:00:52.584Z,10.75
2023-02-04T13:05:09.456Z,12.43
2023-02-04T13:09:25.306Z,11.57
2023-02-04T13:13:40.822Z,8.77
2023-02-04T13:17:53.411Z,8.82
2023-02-04T13:22:09.398Z,6.53
2023-02-04T13:26:27.149Z,6.40
2023-02-04T13:30:43.237Z,4.53
2023-02-04T13:34:56.733Z,5.00
2023-02-04T13:39:09.239Z,7.35
2023-02-04T13:43:24.681Z,8.98
2023-02-04T13:47:39.871Z,10.98
2023-02-04T13:51:59.283Z,9.60
2023-02-04T13:56:12.006Z,8.50
2023-02-04T14:00:26.862Z,6.40
2023-02-04T14:04:39.216Z,9.77
2023-02-04T14:08:51.546Z,8.50
2023-02-04T14:13:03.855Z,9.50
2023-02-04T14:17:18.409Z,7.82
2023-02-04T14:21:30.789Z,5.60
2023-02-04T14:25:46.162Z,9.35
2023-02-04T14:30:00.154Z,9.85
2023-02-04T14:34:12.553Z,13.35
2023-02-04T14:38:31.378Z,8.77
2023-02-04T14:42:44.008Z,11.10
2023-02-04T14:46:56.465Z,11.05
2023-02-04T14:51:10.298Z,13.60
2023-02-04T14:55:27.668Z,12.00
2023-02-04T14:59:40.158Z,7.25
2023-02-04T15:03:57.256Z,10.32
2023-02-04T15:08:09.807Z,11.85
2023-02-04T15:12:23.889Z,9.70
2023-02-04T15:16:36.333Z,7.35
2023-02-04T15:20:48.624Z,8.02
2023-02-04T15:25:01.091Z,12.13
2023-02-04T15:29:14.736Z,11.90
2023-02-04T15:33:27.170Z,8.80
2023-02-04T15:37:42.454Z,11.63
2023-02-04T15:41:54.780Z,12.32
2023-02-04T15:46:07.740Z,12.63
2023-02-04T15:50:20.422Z,15.75
2023-02-04T15:54:32.822Z,26.60
2023-02-04T15:58:45.283Z,24.50
2023-02-04T16:03:01.293Z,19.52
2023-02-04T16:07:14.423Z,12.93
2023-02-04T16:11:28.807Z,7.22
2023-02-04T16:15:41.270Z,9.60
2023-02-04T16:19:53.766Z,7.57
2023-02-04T16:24:07.859Z,5.43
2023-02-04T16:28:23.049Z,9.55
2023-02-04T16:32:38.627Z,10.27
2023-02-04T16:37:06.214Z,8.25
2023-02-04T16:41:19.533Z,7.90
2023-02-04T16:45:44.063Z,9.13
2023-02-04T16:50:04.529Z,8.13
2023-02-04T16:54:19.531Z,12.93
2023-02-04T16:58:33.355Z,14.50
2023-02-04T17:02:45.750Z,15.18
2023-02-04T17:06:58.270Z,10.23
2023-02-04T17:11:29.037Z,11.68
2023-02-04T17:15:42.608Z,10.90
2023-02-04T17:19:54.931Z,11.18
2023-02-04T17:24:11.305Z,13.43
2023-02-04T17:28:25.487Z,14.30
2023-02-04T17:32:37.911Z,14.55
2023-02-04T17:36:50.333Z,15.35
2023-02-04T17:41:02.912Z,19.83
2023-02-04T17:45:15.414Z,23.58
2023-02-04T17:49:27.707Z,25.38
2023-02-04T17:53:42.795Z,30.45
2023-02-04T17:57:56.491Z,23.40
2023-02-04T18:02:30.028Z,9.75
2023-02-04T18:06:42.596Z,19.83
2023-02-04T18:10:58.523Z,16.33
2023-02-04T18:15:37.293Z,16.90
2023-02-04T18:19:49.887Z,21.35
2023-02-04T18:24:19.726Z,24.50
2023-02-04T18:28:35.263Z,19.45
2023-02-04T18:32:48.543Z,21.80
2023-02-04T18:37:21.700Z,7.97
2023-02-04T18:41:36.938Z,5.85
2023-02-04T18:45:49.323Z,6.72
2023-02-04T18:50:16.306Z,5.78
2023-02-04T18:54:30.287Z,5.30
2023-02-04T18:58:45.694Z,5.38
2023-02-04T19:03:25.823Z,6.10
2023-02-04T19:07:38.313Z,10.50
2023-02-04T19:11:56.197Z,15.23
2023-02-04T19:16:25.271Z,15.90
2023-02-04T19:20:39.000Z,18.45
2023-02-04T19:25:02.905Z,22.40
2023-02-04T19:29:30.613Z,20.92
2023-02-04T19:33:47.350Z,16.65
2023-02-04T19:38:02.798Z,15.15
2023-02-04T19:42:29.433Z,15.88
2023-02-04T19:46:43.414Z,16.25
2023-02-04T19:50:55.783Z,18.52
2023-02-04T19:55:17.402Z,13.07
2023-02-04T19:59:34.356Z,12.98
2023-02-04T20:03:48.702Z,7.28
2023-02-04T20:08:27.611Z,6.40
2023-02-04T20:12:41.557Z,7.40
2023-02-04T20:17:00.590Z,8.00
2023-02-04T20:21:13.213Z,8.52
2023-02-04T20:25:42.072Z,7.55
2023-02-04T20:30:14.615Z,8.23
2023-02-04T20:34:27.522Z,4.63
2023-02-04T20:38:39.933Z,7.47
2023-02-04T20:42:59.714Z,5.15
2023-02-04T20:47:25.648Z,6.45
2023-02-04T20:51:38.211Z,4.43
2023-02-04T20:56:04.124Z,4.45
2023-02-04T21:00:28.759Z,7.78
2023-02-04T21:04:47.363Z,8.60
2023-02-04T21:09:00.585Z,8.15
2023-02-04T21:13:13.146Z,8.18
2023-02-04T21:17:25.599Z,7.68
2023-02-04T21:21:38.015Z,7.97
2023-02-04T21:25:50.489Z,6.22
2023-02-04T21:30:03.102Z,7.32
2023-02-04T21:34:16.178Z,11.45
2023-02-04T21:38:28.705Z,8.27
2023-02-04T21:42:41.974Z,8.80
2023-02-04T21:46:54.258Z,4.13
2023-02-04T21:51:06.686Z,0.75
2023-02-04T21:55:23.724Z,0.90
2023-02-04T21:59:36.048Z,3.80
2023-02-04T22:03:54.342Z,2.33
2023-02-04T22:08:07.074Z,3.75
2023-02-04T22:12:20.177Z,2.65
2023-02-04T22:16:32.662Z,3.80
2023-02-04T22:20:45.402Z,3.13
2023-02-04T22:24:57.907Z,2.38
2023-02-04T22:29:11.342Z,2.45
2023-02-04T22:33:23.839Z,2.63
2023-02-04T22:37:37.345Z,5.85
2023-02-04T22:41:49.716Z,2.40
2023-02-04T22:46:02.190Z,2.20
2023-02-04T22:50:16.129Z,2.67
2023-02-04T22:54:28.595Z,3.70
2023-02-04T22:58:42.700Z,6.60
2023-02-04T23:02:55.126Z,3.88
2023-02-04T23:07:08.730Z,4.03
2023-02-04T23:11:23.420Z,5.60
2023-02-04T23:15:36.122Z,4.95
2023-02-04T23:19:48.630Z,5.00
2023-02-04T23:24:01.203Z,5.05
2023-02-04T23:28:14.943Z,8.68
2023-02-04T23:32:28.080Z,7.43
2023-02-04T23:36:40.483Z,8.35
2023-02-04T23:40:57.348Z,2.92
2023-02-04T23:45:10.286Z,6.05
2023-02-04T23:49:22.635Z,8.38
2023-02-04T23:53:35.936Z,4.43
2023-02-04T23:57:49.917Z,3.00
